sensor_id;sensor_type;location;lat;lon;timestamp;temperature;humidity
13638;DHT22;6892;50.916;4.356;2022-07-23T00:00:58;15.80;99.90
13638;DHT22;6892;50.916;4.356;2022-07-23T00:03:25;15.80;99.90
13638;DHT22;6892;50.916;4.356;2022-07-23T00:05:52;15.80;99.90
13638;DHT22;6892;50.916;4.356;2022-07-23T00:08:18;15.70;99.90
13638;DHT22;6892;50.916;4.356;2022-07-23T00:10:45;15.70;99.90
13638;DHT22;6892;50.916;4.356;2022-07-23T00:13:12;15.60;99.90
13638;DHT22;6892;50.916;4.356;2022-07-23T00:15:39;15.60;99.90
13638;DHT22;6892;50.916;4.356;2022-07-23T00:18:07;15.50;99.90
13638;DHT22;6892;50.916;4.356;2022-07-23T00:20:34;15.50;99.90
13638;DHT22;6892;50.916;4.356;2022-07-23T00:23:01;15.50;99.90
13638;DHT22;6892;50.916;4.356;2022-07-23T00:25:27;15.50;99.90
13638;DHT22;6892;50.916;4.356;2022-07-23T00:27:54;15.50;99.90
13638;DHT22;6892;50.916;4.356;2022-07-23T00:30:21;15.50;99.90
13638;DHT22;6892;50.916;4.356;2022-07-23T00:32:48;15.50;99.90
13638;DHT22;6892;50.916;4.356;2022-07-23T00:35:18;15.40;99.90
13638;DHT22;6892;50.916;4.356;2022-07-23T00:37:45;15.40;99.90
13638;DHT22;6892;50.916;4.356;2022-07-23T00:40:12;15.40;99.90
13638;DHT22;6892;50.916;4.356;2022-07-23T00:42:39;15.40;99.90
13638;DHT22;6892;50.916;4.356;2022-07-23T00:45:06;15.30;99.90
13638;DHT22;6892;50.916;4.356;2022-07-23T00:47:33;15.30;99.90
13638;DHT22;6892;50.916;4.356;2022-07-23T00:50:00;15.30;99.90
13638;DHT22;6892;50.916;4.356;2022-07-23T00:52:28;15.30;99.90
13638;DHT22;6892;50.916;4.356;2022-07-23T00:54:55;15.30;99.90
13638;DHT22;6892;50.916;4.356;2022-07-23T00:57:23;15.30;99.90
13638;DHT22;6892;50.916;4.356;2022-07-23T00:59:49;15.20;99.90
13638;DHT22;6892;50.916;4.356;2022-07-23T01:02:16;15.20;99.90
13638;DHT22;6892;50.916;4.356;2022-07-23T01:04:43;15.20;99.90
13638;DHT22;6892;50.916;4.356;2022-07-23T01:07:09;15.10;99.90
13638;DHT22;6892;50.916;4.356;2022-07-23T01:09:38;15.10;99.90
13638;DHT22;6892;50.916;4.356;2022-07-23T01:12:05;15.00;99.90
13638;DHT22;6892;50.916;4.356;2022-07-23T01:14:32;15.00;99.90
13638;DHT22;6892;50.916;4.356;2022-07-23T01:16:59;15.00;99.90
13638;DHT22;6892;50.916;4.356;2022-07-23T01:19:25;14.90;99.90
13638;DHT22;6892;50.916;4.356;2022-07-23T01:21:52;14.90;99.90
13638;DHT22;6892;50.916;4.356;2022-07-23T01:24:21;14.80;99.90
13638;DHT22;6892;50.916;4.356;2022-07-23T01:26:48;14.80;99.90
13638;DHT22;6892;50.916;4.356;2022-07-23T01:29:15;14.80;99.90
13638;DHT22;6892;50.916;4.356;2022-07-23T01:31:42;14.80;99.90
13638;DHT22;6892;50.916;4.356;2022-07-23T01:34:09;14.80;99.90
13638;DHT22;6892;50.916;4.356;2022-07-23T01:36:36;14.80;99.90
13638;DHT22;6892;50.916;4.356;2022-07-23T01:39:03;14.80;99.90
13638;DHT22;6892;50.916;4.356;2022-07-23T01:41:31;14.80;99.90
13638;DHT22;6892;50.916;4.356;2022-07-23T01:43:58;14.80;99.90
13638;DHT22;6892;50.916;4.356;2022-07-23T01:46:25;14.90;99.90
13638;DHT22;6892;50.916;4.356;2022-07-23T01:48:52;14.90;99.90
13638;DHT22;6892;50.916;4.356;2022-07-23T01:51:19;14.90;99.90
13638;DHT22;6892;50.916;4.356;2022-07-23T01:53:45;14.90;99.90
13638;DHT22;6892;50.916;4.356;2022-07-23T01:56:12;14.80;99.90
13638;DHT22;6892;50.916;4.356;2022-07-23T01:58:41;14.80;99.90
13638;DHT22;6892;50.916;4.356;2022-07-23T02:01:08;14.80;99.90
13638;DHT22;6892;50.916;4.356;2022-07-23T02:03:35;14.80;99.90
13638;DHT22;6892;50.916;4.356;2022-07-23T02:06:02;14.80;99.90
13638;DHT22;6892;50.916;4.356;2022-07-23T02:08:28;14.80;99.90
13638;DHT22;6892;50.916;4.356;2022-07-23T02:10:55;14.80;99.90
13638;DHT22;6892;50.916;4.356;2022-07-23T02:13:23;14.80;99.90
13638;DHT22;6892;50.916;4.356;2022-07-23T02:15:51;14.80;99.90
13638;DHT22;6892;50.916;4.356;2022-07-23T02:18:18;14.80;99.90
13638;DHT22;6892;50.916;4.356;2022-07-23T02:20:45;14.80;99.90
13638;DHT22;6892;50.916;4.356;2022-07-23T02:23:12;14.70;99.90
13638;DHT22;6892;50.916;4.356;2022-07-23T02:25:39;14.70;99.90
13638;DHT22;6892;50.916;4.356;2022-07-23T02:28:05;14.70;99.90
13638;DHT22;6892;50.916;4.356;2022-07-23T02:30:32;14.60;99.90
13638;DHT22;6892;50.916;4.356;2022-07-23T02:33:00;14.60;99.90
13638;DHT22;6892;50.916;4.356;2022-07-23T02:35:27;14.50;99.90
13638;DHT22;6892;50.916;4.356;2022-07-23T02:37:54;14.40;99.90
13638;DHT22;6892;50.916;4.356;2022-07-23T02:40:20;14.40;99.90
13638;DHT22;6892;50.916;4.356;2022-07-23T02:42:47;14.30;99.90
13638;DHT22;6892;50.916;4.356;2022-07-23T02:45:14;14.20;99.90
13638;DHT22;6892;50.916;4.356;2022-07-23T02:47:41;14.20;99.90
13638;DHT22;6892;50.916;4.356;2022-07-23T02:50:09;14.20;99.90
13638;DHT22;6892;50.916;4.356;2022-07-23T02:52:37;14.20;99.90
13638;DHT22;6892;50.916;4.356;2022-07-23T02:55:04;14.20;99.90
13638;DHT22;6892;50.916;4.356;2022-07-23T02:57:31;14.10;99.90
13638;DHT22;6892;50.916;4.356;2022-07-23T02:59:58;14.10;99.90
13638;DHT22;6892;50.916;4.356;2022-07-23T03:02:25;14.00;99.90
13638;DHT22;6892;50.916;4.356;2022-07-23T03:04:51;14.00;99.90
13638;DHT22;6892;50.916;4.356;2022-07-23T03:07:19;14.10;99.90
13638;DHT22;6892;50.916;4.356;2022-07-23T03:09:47;14.10;99.90
13638;DHT22;6892;50.916;4.356;2022-07-23T03:12:16;14.10;99.90
13638;DHT22;6892;50.916;4.356;2022-07-23T03:14:43;14.00;99.90
13638;DHT22;6892;50.916;4.356;2022-07-23T03:17:09;14.00;99.90
13638;DHT22;6892;50.916;4.356;2022-07-23T03:19:36;13.90;99.90
13638;DHT22;6892;50.916;4.356;2022-07-23T03:22:04;13.90;99.90
13638;DHT22;6892;50.916;4.356;2022-07-23T03:24:32;13.80;99.90
13638;DHT22;6892;50.916;4.356;2022-07-23T03:27:12;13.80;99.90
13638;DHT22;6892;50.916;4.356;2022-07-23T03:29:39;13.80;99.90
13638;DHT22;6892;50.916;4.356;2022-07-23T03:32:06;13.70;99.90
13638;DHT22;6892;50.916;4.356;2022-07-23T03:34:33;13.70;99.90
13638;DHT22;6892;50.916;4.356;2022-07-23T03:36:59;13.70;99.90
13638;DHT22;6892;50.916;4.356;2022-07-23T03:39:26;13.70;99.90
13638;DHT22;6892;50.916;4.356;2022-07-23T03:41:54;13.70;99.90
13638;DHT22;6892;50.916;4.356;2022-07-23T03:44:21;13.70;99.90
13638;DHT22;6892;50.916;4.356;2022-07-23T03:46:47;13.70;99.90
13638;DHT22;6892;50.916;4.356;2022-07-23T03:49:14;13.70;99.90
13638;DHT22;6892;50.916;4.356;2022-07-23T03:51:41;13.60;99.90
13638;DHT22;6892;50.916;4.356;2022-07-23T03:54:08;13.60;99.90
13638;DHT22;6892;50.916;4.356;2022-07-23T03:56:34;13.70;99.90
13638;DHT22;6892;50.916;4.356;2022-07-23T03:59:03;13.70;99.90
13638;DHT22;6892;50.916;4.356;2022-07-23T04:01:30;13.80;99.90
13638;DHT22;6892;50.916;4.356;2022-07-23T04:03:56;13.80;99.90
13638;DHT22;6892;50.916;4.356;2022-07-23T04:06:23;13.80;99.90
13638;DHT22;6892;50.916;4.356;2022-07-23T04:08:50;13.90;99.90
13638;DHT22;6892;50.916;4.356;2022-07-23T04:11:17;13.90;99.90
13638;DHT22;6892;50.916;4.356;2022-07-23T04:13:43;13.90;99.90
13638;DHT22;6892;50.916;4.356;2022-07-23T04:16:11;13.80;99.90
13638;DHT22;6892;50.916;4.356;2022-07-23T04:18:38;13.80;99.90
13638;DHT22;6892;50.916;4.356;2022-07-23T04:21:05;13.70;99.90
13638;DHT22;6892;50.916;4.356;2022-07-23T04:23:32;13.80;99.90
13638;DHT22;6892;50.916;4.356;2022-07-23T04:25:58;13.80;99.90
13638;DHT22;6892;50.916;4.356;2022-07-23T04:28:25;13.80;99.90
13638;DHT22;6892;50.916;4.356;2022-07-23T04:30:52;13.90;99.90
13638;DHT22;6892;50.916;4.356;2022-07-23T04:33:20;14.00;99.90
13638;DHT22;6892;50.916;4.356;2022-07-23T04:35:47;14.10;99.90
13638;DHT22;6892;50.916;4.356;2022-07-23T04:38:14;14.10;99.90
13638;DHT22;6892;50.916;4.356;2022-07-23T04:40:40;14.20;99.90
13638;DHT22;6892;50.916;4.356;2022-07-23T04:43:07;14.20;99.90
13638;DHT22;6892;50.916;4.356;2022-07-23T04:45:34;14.30;99.90
13638;DHT22;6892;50.916;4.356;2022-07-23T04:48:00;14.30;99.90
13638;DHT22;6892;50.916;4.356;2022-07-23T04:50:29;14.30;99.90
13638;DHT22;6892;50.916;4.356;2022-07-23T04:52:55;14.40;99.90
13638;DHT22;6892;50.916;4.356;2022-07-23T04:55:22;14.40;99.90
13638;DHT22;6892;50.916;4.356;2022-07-23T04:57:49;14.50;99.90
13638;DHT22;6892;50.916;4.356;2022-07-23T05:00:16;14.60;99.90
13638;DHT22;6892;50.916;4.356;2022-07-23T05:02:43;14.70;99.90
13638;DHT22;6892;50.916;4.356;2022-07-23T05:05:09;15.10;99.90
13638;DHT22;6892;50.916;4.356;2022-07-23T05:07:37;15.50;99.90
13638;DHT22;6892;50.916;4.356;2022-07-23T05:10:04;15.90;99.90
13638;DHT22;6892;50.916;4.356;2022-07-23T05:12:31;16.00;99.90
13638;DHT22;6892;50.916;4.356;2022-07-23T05:14:58;15.90;99.90
13638;DHT22;6892;50.916;4.356;2022-07-23T05:17:25;16.00;99.90
13638;DHT22;6892;50.916;4.356;2022-07-23T05:19:52;16.10;99.90
13638;DHT22;6892;50.916;4.356;2022-07-23T05:22:19;16.30;99.90
13638;DHT22;6892;50.916;4.356;2022-07-23T05:24:47;16.80;99.90
13638;DHT22;6892;50.916;4.356;2022-07-23T05:27:14;17.10;99.90
13638;DHT22;6892;50.916;4.356;2022-07-23T05:29:40;17.40;99.90
13638;DHT22;6892;50.916;4.356;2022-07-23T05:32:07;17.50;99.90
13638;DHT22;6892;50.916;4.356;2022-07-23T05:34:34;17.60;99.90
13638;DHT22;6892;50.916;4.356;2022-07-23T05:37:01;17.60;99.90
13638;DHT22;6892;50.916;4.356;2022-07-23T05:39:28;17.50;99.90
13638;DHT22;6892;50.916;4.356;2022-07-23T05:41:56;17.10;99.90
13638;DHT22;6892;50.916;4.356;2022-07-23T05:44:22;17.00;99.90
13638;DHT22;6892;50.916;4.356;2022-07-23T05:46:49;17.00;99.90
13638;DHT22;6892;50.916;4.356;2022-07-23T05:49:16;17.00;99.90
13638;DHT22;6892;50.916;4.356;2022-07-23T05:51:43;17.00;99.90
13638;DHT22;6892;50.916;4.356;2022-07-23T05:54:10;17.00;99.90
13638;DHT22;6892;50.916;4.356;2022-07-23T05:56:37;17.20;99.90
13638;DHT22;6892;50.916;4.356;2022-07-23T05:59:05;17.30;99.90
13638;DHT22;6892;50.916;4.356;2022-07-23T06:01:32;17.40;99.90
13638;DHT22;6892;50.916;4.356;2022-07-23T06:03:59;17.50;99.90
13638;DHT22;6892;50.916;4.356;2022-07-23T06:06:25;17.70;99.90
13638;DHT22;6892;50.916;4.356;2022-07-23T06:08:52;17.80;99.90
13638;DHT22;6892;50.916;4.356;2022-07-23T06:11:19;17.80;99.90
13638;DHT22;6892;50.916;4.356;2022-07-23T06:13:45;17.90;99.90
13638;DHT22;6892;50.916;4.356;2022-07-23T06:16:13;18.00;99.90
13638;DHT22;6892;50.916;4.356;2022-07-23T06:18:40;18.00;99.90
13638;DHT22;6892;50.916;4.356;2022-07-23T06:21:07;18.10;99.90
13638;DHT22;6892;50.916;4.356;2022-07-23T06:23:33;18.00;99.90
13638;DHT22;6892;50.916;4.356;2022-07-23T06:26:00;17.90;99.90
13638;DHT22;6892;50.916;4.356;2022-07-23T06:28:27;17.80;99.90
13638;DHT22;6892;50.916;4.356;2022-07-23T06:30:53;18.00;99.90
13638;DHT22;6892;50.916;4.356;2022-07-23T06:33:21;18.20;99.90
13638;DHT22;6892;50.916;4.356;2022-07-23T06:35:48;18.30;99.90
13638;DHT22;6892;50.916;4.356;2022-07-23T06:38:15;18.60;99.90
13638;DHT22;6892;50.916;4.356;2022-07-23T06:40:41;18.80;99.90
13638;DHT22;6892;50.916;4.356;2022-07-23T06:43:09;18.50;99.90
13638;DHT22;6892;50.916;4.356;2022-07-23T06:45:35;18.50;99.90
13638;DHT22;6892;50.916;4.356;2022-07-23T06:48:02;18.60;99.90
13638;DHT22;6892;50.916;4.356;2022-07-23T06:50:30;19.50;99.90
13638;DHT22;6892;50.916;4.356;2022-07-23T06:52:57;20.40;99.90
13638;DHT22;6892;50.916;4.356;2022-07-23T06:55:24;21.00;99.90
13638;DHT22;6892;50.916;4.356;2022-07-23T06:57:50;20.70;99.90
13638;DHT22;6892;50.916;4.356;2022-07-23T07:00:17;20.80;99.90
13638;DHT22;6892;50.916;4.356;2022-07-23T07:02:44;21.30;99.90
13638;DHT22;6892;50.916;4.356;2022-07-23T07:05:10;21.80;99.90
13638;DHT22;6892;50.916;4.356;2022-07-23T07:07:38;22.30;99.90
13638;DHT22;6892;50.916;4.356;2022-07-23T07:10:05;22.80;99.90
13638;DHT22;6892;50.916;4.356;2022-07-23T07:12:32;23.00;99.90
13638;DHT22;6892;50.916;4.356;2022-07-23T07:14:59;23.00;99.90
13638;DHT22;6892;50.916;4.356;2022-07-23T07:17:26;23.00;99.90
13638;DHT22;6892;50.916;4.356;2022-07-23T07:19:52;23.30;99.90
13638;DHT22;6892;50.916;4.356;2022-07-23T07:22:19;23.80;99.90
13638;DHT22;6892;50.916;4.356;2022-07-23T07:24:47;23.30;99.90
13638;DHT22;6892;50.916;4.356;2022-07-23T07:27:14;23.90;99.90
13638;DHT22;6892;50.916;4.356;2022-07-23T07:29:40;24.50;99.90
13638;DHT22;6892;50.916;4.356;2022-07-23T07:32:07;24.50;99.90
13638;DHT22;6892;50.916;4.356;2022-07-23T07:34:34;23.60;99.90
13638;DHT22;6892;50.916;4.356;2022-07-23T07:37:00;24.00;99.90
13638;DHT22;6892;50.916;4.356;2022-07-23T07:39:27;24.00;99.90
13638;DHT22;6892;50.916;4.356;2022-07-23T07:41:55;23.90;99.90
13638;DHT22;6892;50.916;4.356;2022-07-23T07:44:22;24.00;99.90
13638;DHT22;6892;50.916;4.356;2022-07-23T07:46:49;24.20;99.90
13638;DHT22;6892;50.916;4.356;2022-07-23T07:49:15;24.50;99.90
13638;DHT22;6892;50.916;4.356;2022-07-23T07:51:44;24.60;99.90
13638;DHT22;6892;50.916;4.356;2022-07-23T07:54:11;24.30;99.90
13638;DHT22;6892;50.916;4.356;2022-07-23T07:56:38;24.90;99.90
13638;DHT22;6892;50.916;4.356;2022-07-23T07:59:06;25.30;99.90
13638;DHT22;6892;50.916;4.356;2022-07-23T08:01:32;25.10;99.90
13638;DHT22;6892;50.916;4.356;2022-07-23T08:03:59;24.70;99.90
13638;DHT22;6892;50.916;4.356;2022-07-23T08:06:26;24.90;99.90
13638;DHT22;6892;50.916;4.356;2022-07-23T08:08:52;24.60;99.90
13638;DHT22;6892;50.916;4.356;2022-07-23T08:11:19;24.60;99.90
13638;DHT22;6892;50.916;4.356;2022-07-23T08:13:46;24.80;99.90
13638;DHT22;6892;50.916;4.356;2022-07-23T08:16:14;24.80;99.90
13638;DHT22;6892;50.916;4.356;2022-07-23T08:18:41;23.90;99.90
13638;DHT22;6892;50.916;4.356;2022-07-23T08:21:07;24.80;99.90
13638;DHT22;6892;50.916;4.356;2022-07-23T08:23:34;25.90;99.90
13638;DHT22;6892;50.916;4.356;2022-07-23T08:26:01;25.90;99.90
13638;DHT22;6892;50.916;4.356;2022-07-23T08:28:27;25.90;99.90
13638;DHT22;6892;50.916;4.356;2022-07-23T08:30:54;26.00;99.90
13638;DHT22;6892;50.916;4.356;2022-07-23T08:33:22;25.50;99.90
13638;DHT22;6892;50.916;4.356;2022-07-23T08:35:49;25.60;99.90
13638;DHT22;6892;50.916;4.356;2022-07-23T08:38:18;26.10;99.90
13638;DHT22;6892;50.916;4.356;2022-07-23T08:40:46;25.90;99.90
13638;DHT22;6892;50.916;4.356;2022-07-23T08:43:15;26.50;99.90
13638;DHT22;6892;50.916;4.356;2022-07-23T08:45:42;26.90;99.90
13638;DHT22;6892;50.916;4.356;2022-07-23T08:48:11;24.80;99.90
13638;DHT22;6892;50.916;4.356;2022-07-23T08:50:39;24.80;99.90
13638;DHT22;6892;50.916;4.356;2022-07-23T08:53:08;25.30;99.90
13638;DHT22;6892;50.916;4.356;2022-07-23T08:55:35;25.70;99.90
13638;DHT22;6892;50.916;4.356;2022-07-23T08:58:02;25.80;99.90
13638;DHT22;6892;50.916;4.356;2022-07-23T09:00:29;25.80;99.90
13638;DHT22;6892;50.916;4.356;2022-07-23T09:02:56;26.60;99.90
13638;DHT22;6892;50.916;4.356;2022-07-23T09:05:22;26.80;99.90
13638;DHT22;6892;50.916;4.356;2022-07-23T09:08:10;26.60;99.90
13638;DHT22;6892;50.916;4.356;2022-07-23T09:10:44;26.60;99.90
13638;DHT22;6892;50.916;4.356;2022-07-23T09:13:30;26.60;99.90
13638;DHT22;6892;50.916;4.356;2022-07-23T09:15:57;26.00;99.90
13638;DHT22;6892;50.916;4.356;2022-07-23T09:18:28;26.60;99.90
13638;DHT22;6892;50.916;4.356;2022-07-23T09:21:05;26.80;99.90
13638;DHT22;6892;50.916;4.356;2022-07-23T09:23:37;26.50;99.90
13638;DHT22;6892;50.916;4.356;2022-07-23T09:26:12;25.90;99.90
13638;DHT22;6892;50.916;4.356;2022-07-23T09:28:48;25.30;99.90
13638;DHT22;6892;50.916;4.356;2022-07-23T09:31:16;25.20;99.90
13638;DHT22;6892;50.916;4.356;2022-07-23T09:33:42;25.30;99.90
13638;DHT22;6892;50.916;4.356;2022-07-23T09:36:09;25.50;99.90
13638;DHT22;6892;50.916;4.356;2022-07-23T09:38:37;25.40;99.90
13638;DHT22;6892;50.916;4.356;2022-07-23T09:41:13;25.40;99.90
13638;DHT22;6892;50.916;4.356;2022-07-23T09:43:40;25.40;99.90
13638;DHT22;6892;50.916;4.356;2022-07-23T09:46:16;25.40;99.90
13638;DHT22;6892;50.916;4.356;2022-07-23T09:48:42;25.60;99.90
13638;DHT22;6892;50.916;4.356;2022-07-23T09:51:09;25.70;99.90
13638;DHT22;6892;50.916;4.356;2022-07-23T09:53:37;25.50;99.90
13638;DHT22;6892;50.916;4.356;2022-07-23T09:56:04;25.40;99.90
13638;DHT22;6892;50.916;4.356;2022-07-23T09:58:32;25.40;99.90
13638;DHT22;6892;50.916;4.356;2022-07-23T10:00:59;25.50;99.90
13638;DHT22;6892;50.916;4.356;2022-07-23T10:03:25;25.40;99.90
13638;DHT22;6892;50.916;4.356;2022-07-23T10:05:52;25.30;99.90
13638;DHT22;6892;50.916;4.356;2022-07-23T10:08:19;25.40;99.90
13638;DHT22;6892;50.916;4.356;2022-07-23T10:10:48;25.30;99.90
13638;DHT22;6892;50.916;4.356;2022-07-23T10:13:16;25.30;99.90
13638;DHT22;6892;50.916;4.356;2022-07-23T10:16:09;25.50;99.90
13638;DHT22;6892;50.916;4.356;2022-07-23T10:18:36;25.70;99.90
13638;DHT22;6892;50.916;4.356;2022-07-23T10:21:03;25.60;99.90
13638;DHT22;6892;50.916;4.356;2022-07-23T10:23:33;25.50;99.90
13638;DHT22;6892;50.916;4.356;2022-07-23T10:26:05;25.40;99.90
13638;DHT22;6892;50.916;4.356;2022-07-23T10:28:45;24.90;99.90
13638;DHT22;6892;50.916;4.356;2022-07-23T10:31:16;24.80;99.90
13638;DHT22;6892;50.916;4.356;2022-07-23T10:33:45;25.10;99.90
13638;DHT22;6892;50.916;4.356;2022-07-23T10:36:18;25.10;99.90
13638;DHT22;6892;50.916;4.356;2022-07-23T10:38:48;25.10;99.90
13638;DHT22;6892;50.916;4.356;2022-07-23T10:41:31;25.70;99.90
13638;DHT22;6892;50.916;4.356;2022-07-23T10:44:08;26.20;99.90
13638;DHT22;6892;50.916;4.356;2022-07-23T10:46:35;26.60;99.90
13638;DHT22;6892;50.916;4.356;2022-07-23T10:49:25;26.20;99.90
13638;DHT22;6892;50.916;4.356;2022-07-23T10:54:37;26.00;99.90
13638;DHT22;6892;50.916;4.356;2022-07-23T10:57:06;25.80;99.90
13638;DHT22;6892;50.916;4.356;2022-07-23T11:02:22;26.10;99.90
13638;DHT22;6892;50.916;4.356;2022-07-23T11:04:50;26.20;99.90
13638;DHT22;6892;50.916;4.356;2022-07-23T11:07:17;26.60;99.90
13638;DHT22;6892;50.916;4.356;2022-07-23T11:09:43;26.80;99.90
13638;DHT22;6892;50.916;4.356;2022-07-23T11:15:02;26.30;99.90
13638;DHT22;6892;50.916;4.356;2022-07-23T11:17:30;25.40;99.90
13638;DHT22;6892;50.916;4.356;2022-07-23T11:22:46;25.30;99.90
13638;DHT22;6892;50.916;4.356;2022-07-23T11:25:13;25.20;99.90
13638;DHT22;6892;50.916;4.356;2022-07-23T11:27:40;25.10;99.90
13638;DHT22;6892;50.916;4.356;2022-07-23T11:30:09;25.80;99.90
13638;DHT22;6892;50.916;4.356;2022-07-23T11:32:37;25.90;99.90
13638;DHT22;6892;50.916;4.356;2022-07-23T11:35:24;26.20;99.90
13638;DHT22;6892;50.916;4.356;2022-07-23T11:37:53;26.20;99.90
13638;DHT22;6892;50.916;4.356;2022-07-23T11:40:24;26.00;99.90
13638;DHT22;6892;50.916;4.356;2022-07-23T11:42:52;25.60;99.90
13638;DHT22;6892;50.916;4.356;2022-07-23T11:45:20;25.20;99.90
13638;DHT22;6892;50.916;4.356;2022-07-23T11:47:47;25.50;99.90
13638;DHT22;6892;50.916;4.356;2022-07-23T11:50:14;26.20;99.90
13638;DHT22;6892;50.916;4.356;2022-07-23T11:52:40;26.50;99.90
13638;DHT22;6892;50.916;4.356;2022-07-23T11:55:08;26.30;99.90
13638;DHT22;6892;50.916;4.356;2022-07-23T11:57:36;26.60;99.90
13638;DHT22;6892;50.916;4.356;2022-07-23T12:00:04;26.60;99.90
13638;DHT22;6892;50.916;4.356;2022-07-23T12:02:33;26.20;99.90
13638;DHT22;6892;50.916;4.356;2022-07-23T12:05:00;25.90;99.90
13638;DHT22;6892;50.916;4.356;2022-07-23T12:07:27;25.90;99.90
13638;DHT22;6892;50.916;4.356;2022-07-23T12:09:55;26.20;99.90
13638;DHT22;6892;50.916;4.356;2022-07-23T12:12:22;26.50;99.90
13638;DHT22;6892;50.916;4.356;2022-07-23T12:14:50;26.70;99.90
13638;DHT22;6892;50.916;4.356;2022-07-23T12:17:18;27.30;99.90
13638;DHT22;6892;50.916;4.356;2022-07-23T12:19:46;27.70;99.90
13638;DHT22;6892;50.916;4.356;2022-07-23T12:22:13;27.30;99.90
13638;DHT22;6892;50.916;4.356;2022-07-23T12:24:53;26.60;99.90
13638;DHT22;6892;50.916;4.356;2022-07-23T12:27:20;27.00;99.90
13638;DHT22;6892;50.916;4.356;2022-07-23T12:29:46;26.60;99.90
13638;DHT22;6892;50.916;4.356;2022-07-23T12:32:17;26.90;99.90
13638;DHT22;6892;50.916;4.356;2022-07-23T12:34:44;27.40;99.90
13638;DHT22;6892;50.916;4.356;2022-07-23T12:37:25;27.80;99.90
13638;DHT22;6892;50.916;4.356;2022-07-23T12:39:52;27.60;99.90
13638;DHT22;6892;50.916;4.356;2022-07-23T12:42:19;27.90;99.90
13638;DHT22;6892;50.916;4.356;2022-07-23T12:47:27;27.60;99.90
13638;DHT22;6892;50.916;4.356;2022-07-23T12:49:54;27.10;99.90
13638;DHT22;6892;50.916;4.356;2022-07-23T12:52:21;27.30;99.90
13638;DHT22;6892;50.916;4.356;2022-07-23T12:54:49;27.90;99.90
13638;DHT22;6892;50.916;4.356;2022-07-23T12:57:16;27.90;99.90
13638;DHT22;6892;50.916;4.356;2022-07-23T12:59:43;28.20;99.90
13638;DHT22;6892;50.916;4.356;2022-07-23T13:02:09;28.20;99.90
13638;DHT22;6892;50.916;4.356;2022-07-23T13:04:36;28.40;99.90
13638;DHT22;6892;50.916;4.356;2022-07-23T13:07:03;27.80;99.90
13638;DHT22;6892;50.916;4.356;2022-07-23T13:09:30;27.60;99.90
13638;DHT22;6892;50.916;4.356;2022-07-23T13:11:59;27.70;99.90
13638;DHT22;6892;50.916;4.356;2022-07-23T13:14:26;27.90;99.90
13638;DHT22;6892;50.916;4.356;2022-07-23T13:16:53;28.10;99.90
13638;DHT22;6892;50.916;4.356;2022-07-23T13:19:20;28.20;99.90
13638;DHT22;6892;50.916;4.356;2022-07-23T13:21:48;28.30;99.90
13638;DHT22;6892;50.916;4.356;2022-07-23T13:24:15;27.70;99.90
13638;DHT22;6892;50.916;4.356;2022-07-23T13:26:42;27.50;99.90
13638;DHT22;6892;50.916;4.356;2022-07-23T13:29:10;27.60;99.90
13638;DHT22;6892;50.916;4.356;2022-07-23T13:31:38;28.10;99.90
13638;DHT22;6892;50.916;4.356;2022-07-23T13:34:05;28.00;99.90
13638;DHT22;6892;50.916;4.356;2022-07-23T13:36:32;27.80;99.90
13638;DHT22;6892;50.916;4.356;2022-07-23T13:38:58;27.90;99.90
13638;DHT22;6892;50.916;4.356;2022-07-23T13:41:25;27.80;99.90
13638;DHT22;6892;50.916;4.356;2022-07-23T13:43:52;28.00;99.90
13638;DHT22;6892;50.916;4.356;2022-07-23T13:46:20;28.50;99.90
13638;DHT22;6892;50.916;4.356;2022-07-23T13:48:47;28.90;99.90
13638;DHT22;6892;50.916;4.356;2022-07-23T13:51:13;28.60;99.90
13638;DHT22;6892;50.916;4.356;2022-07-23T13:53:41;28.00;99.90
13638;DHT22;6892;50.916;4.356;2022-07-23T13:56:08;27.70;99.90
13638;DHT22;6892;50.916;4.356;2022-07-23T13:58:34;27.70;99.90
13638;DHT22;6892;50.916;4.356;2022-07-23T14:01:01;27.90;99.90
13638;DHT22;6892;50.916;4.356;2022-07-23T14:03:29;28.20;99.90
13638;DHT22;6892;50.916;4.356;2022-07-23T14:05:56;28.40;99.90
13638;DHT22;6892;50.916;4.356;2022-07-23T14:08:24;28.40;99.90
13638;DHT22;6892;50.916;4.356;2022-07-23T14:10:51;28.40;99.90
13638;DHT22;6892;50.916;4.356;2022-07-23T14:13:17;28.40;99.90
13638;DHT22;6892;50.916;4.356;2022-07-23T14:15:44;28.60;99.90
13638;DHT22;6892;50.916;4.356;2022-07-23T14:18:11;28.80;99.90
13638;DHT22;6892;50.916;4.356;2022-07-23T14:20:39;28.40;99.90
13638;DHT22;6892;50.916;4.356;2022-07-23T14:23:06;28.50;99.90
13638;DHT22;6892;50.916;4.356;2022-07-23T14:25:32;28.80;99.90
13638;DHT22;6892;50.916;4.356;2022-07-23T14:27:59;28.60;99.90
13638;DHT22;6892;50.916;4.356;2022-07-23T14:30:26;28.50;99.90
13638;DHT22;6892;50.916;4.356;2022-07-23T14:32:53;28.00;99.90
13638;DHT22;6892;50.916;4.356;2022-07-23T14:35:19;28.20;99.90
13638;DHT22;6892;50.916;4.356;2022-07-23T14:37:47;28.50;99.90
13638;DHT22;6892;50.916;4.356;2022-07-23T14:40:14;28.90;99.90
13638;DHT22;6892;50.916;4.356;2022-07-23T14:42:41;29.00;99.90
13638;DHT22;6892;50.916;4.356;2022-07-23T14:45:08;29.00;99.90
13638;DHT22;6892;50.916;4.356;2022-07-23T14:47:34;28.80;99.90
13638;DHT22;6892;50.916;4.356;2022-07-23T14:50:01;28.50;99.90
13638;DHT22;6892;50.916;4.356;2022-07-23T14:52:28;28.40;99.90
13638;DHT22;6892;50.916;4.356;2022-07-23T14:54:56;27.80;99.90
13638;DHT22;6892;50.916;4.356;2022-07-23T14:57:23;28.00;99.90
13638;DHT22;6892;50.916;4.356;2022-07-23T14:59:50;28.30;99.90
13638;DHT22;6892;50.916;4.356;2022-07-23T15:02:16;28.50;99.90
13638;DHT22;6892;50.916;4.356;2022-07-23T15:04:43;28.80;99.90
13638;DHT22;6892;50.916;4.356;2022-07-23T15:07:11;29.10;99.90
13638;DHT22;6892;50.916;4.356;2022-07-23T15:09:37;29.30;99.90
13638;DHT22;6892;50.916;4.356;2022-07-23T15:12:06;29.20;99.90
13638;DHT22;6892;50.916;4.356;2022-07-23T15:14:32;29.50;99.90
13638;DHT22;6892;50.916;4.356;2022-07-23T15:16:59;29.80;99.90
13638;DHT22;6892;50.916;4.356;2022-07-23T15:19:26;29.60;99.90
13638;DHT22;6892;50.916;4.356;2022-07-23T15:21:53;29.80;99.90
13638;DHT22;6892;50.916;4.356;2022-07-23T15:24:19;29.80;99.90
13638;DHT22;6892;50.916;4.356;2022-07-23T15:26:46;29.60;99.90
13638;DHT22;6892;50.916;4.356;2022-07-23T15:29:14;29.60;99.90
13638;DHT22;6892;50.916;4.356;2022-07-23T15:31:43;29.50;99.90
13638;DHT22;6892;50.916;4.356;2022-07-23T15:34:10;29.40;99.90
13638;DHT22;6892;50.916;4.356;2022-07-23T15:36:37;29.50;99.90
13638;DHT22;6892;50.916;4.356;2022-07-23T15:39:04;29.10;99.90
13638;DHT22;6892;50.916;4.356;2022-07-23T15:41:30;28.70;99.90
13638;DHT22;6892;50.916;4.356;2022-07-23T15:43:57;27.80;99.90
13638;DHT22;6892;50.916;4.356;2022-07-23T15:46:25;27.60;99.90
13638;DHT22;6892;50.916;4.356;2022-07-23T15:48:52;27.50;99.90
13638;DHT22;6892;50.916;4.356;2022-07-23T15:51:19;27.50;99.90
13638;DHT22;6892;50.916;4.356;2022-07-23T15:53:47;28.00;99.90
13638;DHT22;6892;50.916;4.356;2022-07-23T15:56:14;28.40;99.90
13638;DHT22;6892;50.916;4.356;2022-07-23T15:58:41;28.00;99.90
13638;DHT22;6892;50.916;4.356;2022-07-23T16:01:08;27.80;99.90